sensor_id;sensor_type;location;lat;lon;timestamp;temperature;humidity
3190;DHT22;1606;51.946;10.558;2022-10-22T00:00:55;16.80;99.90
3190;DHT22;1606;51.946;10.558;2022-10-22T00:03:23;16.80;99.90
3190;DHT22;1606;51.946;10.558;2022-10-22T00:05:51;16.80;99.90
3190;DHT22;1606;51.946;10.558;2022-10-22T00:08:20;16.90;99.90
3190;DHT22;1606;51.946;10.558;2022-10-22T00:10:48;17.00;99.90
3190;DHT22;1606;51.946;10.558;2022-10-22T00:13:16;17.10;99.90
3190;DHT22;1606;51.946;10.558;2022-10-22T00:15:43;17.10;99.90
3190;DHT22;1606;51.946;10.558;2022-10-22T00:18:11;17.10;99.90
3190;DHT22;1606;51.946;10.558;2022-10-22T00:20:39;17.10;99.90
3190;DHT22;1606;51.946;10.558;2022-10-22T00:23:07;17.10;99.90
3190;DHT22;1606;51.946;10.558;2022-10-22T00:25:36;17.20;99.90
3190;DHT22;1606;51.946;10.558;2022-10-22T00:28:04;17.00;99.90
3190;DHT22;1606;51.946;10.558;2022-10-22T00:30:32;17.00;99.90
3190;DHT22;1606;51.946;10.558;2022-10-22T00:33:00;17.20;99.90
3190;DHT22;1606;51.946;10.558;2022-10-22T00:35:28;17.20;99.90
3190;DHT22;1606;51.946;10.558;2022-10-22T00:37:56;17.20;99.90
3190;DHT22;1606;51.946;10.558;2022-10-22T00:40:24;17.30;99.90
3190;DHT22;1606;51.946;10.558;2022-10-22T00:42:53;17.20;99.90
3190;DHT22;1606;51.946;10.558;2022-10-22T00:45:23;17.10;99.90
3190;DHT22;1606;51.946;10.558;2022-10-22T00:47:54;17.10;99.90
3190;DHT22;1606;51.946;10.558;2022-10-22T00:50:27;17.10;99.90
3190;DHT22;1606;51.946;10.558;2022-10-22T00:52:57;17.00;99.90
3190;DHT22;1606;51.946;10.558;2022-10-22T00:55:25;16.90;99.90
3190;DHT22;1606;51.946;10.558;2022-10-22T00:57:56;16.90;99.90
3190;DHT22;1606;51.946;10.558;2022-10-22T01:00:25;16.60;99.90
3190;DHT22;1606;51.946;10.558;2022-10-22T01:02:53;16.50;99.90
3190;DHT22;1606;51.946;10.558;2022-10-22T01:05:22;16.70;99.90
3190;DHT22;1606;51.946;10.558;2022-10-22T01:07:51;16.70;99.90
3190;DHT22;1606;51.946;10.558;2022-10-22T01:10:39;16.70;99.90
3190;DHT22;1606;51.946;10.558;2022-10-22T01:13:19;16.70;99.90
3190;DHT22;1606;51.946;10.558;2022-10-22T01:15:55;16.70;99.90
3190;DHT22;1606;51.946;10.558;2022-10-22T01:18:31;16.70;99.90
3190;DHT22;1606;51.946;10.558;2022-10-22T01:21:11;16.70;99.90
3190;DHT22;1606;51.946;10.558;2022-10-22T01:27:13;16.60;99.90
3190;DHT22;1606;51.946;10.558;2022-10-22T01:29:46;16.60;99.90
3190;DHT22;1606;51.946;10.558;2022-10-22T01:32:17;16.50;99.90
3190;DHT22;1606;51.946;10.558;2022-10-22T01:34:49;16.50;99.90
3190;DHT22;1606;51.946;10.558;2022-10-22T01:37:21;16.60;99.90
3190;DHT22;1606;51.946;10.558;2022-10-22T01:39:51;16.70;99.90
3190;DHT22;1606;51.946;10.558;2022-10-22T01:42:19;16.70;99.90
3190;DHT22;1606;51.946;10.558;2022-10-22T01:44:48;16.60;99.90
3190;DHT22;1606;51.946;10.558;2022-10-22T01:47:23;16.60;99.90
3190;DHT22;1606;51.946;10.558;2022-10-22T01:50:15;16.60;99.90
3190;DHT22;1606;51.946;10.558;2022-10-22T01:53:12;16.60;99.90
3190;DHT22;1606;51.946;10.558;2022-10-22T01:55:52;16.50;99.90
3190;DHT22;1606;51.946;10.558;2022-10-22T01:58:31;16.70;99.90
3190;DHT22;1606;51.946;10.558;2022-10-22T02:01:07;16.70;99.90
3190;DHT22;1606;51.946;10.558;2022-10-22T02:03:43;16.60;99.90
3190;DHT22;1606;51.946;10.558;2022-10-22T02:06:15;16.60;99.90
3190;DHT22;1606;51.946;10.558;2022-10-22T02:08:44;16.60;99.90
3190;DHT22;1606;51.946;10.558;2022-10-22T02:11:13;16.60;99.90
3190;DHT22;1606;51.946;10.558;2022-10-22T02:13:44;16.50;99.90
3190;DHT22;1606;51.946;10.558;2022-10-22T02:16:17;16.60;99.90
3190;DHT22;1606;51.946;10.558;2022-10-22T02:18:48;16.50;99.90
3190;DHT22;1606;51.946;10.558;2022-10-22T02:21:17;16.60;99.90
3190;DHT22;1606;51.946;10.558;2022-10-22T02:23:45;16.60;99.90
3190;DHT22;1606;51.946;10.558;2022-10-22T02:26:19;16.40;99.90
3190;DHT22;1606;51.946;10.558;2022-10-22T02:28:55;16.40;99.90
3190;DHT22;1606;51.946;10.558;2022-10-22T02:31:28;16.30;99.90
3190;DHT22;1606;51.946;10.558;2022-10-22T02:34:01;16.40;99.90
3190;DHT22;1606;51.946;10.558;2022-10-22T02:36:31;16.30;99.90
3190;DHT22;1606;51.946;10.558;2022-10-22T02:39:00;16.40;99.90
3190;DHT22;1606;51.946;10.558;2022-10-22T02:41:28;16.50;99.90
3190;DHT22;1606;51.946;10.558;2022-10-22T02:43:56;16.60;99.90
3190;DHT22;1606;51.946;10.558;2022-10-22T02:46:26;16.60;99.90
3190;DHT22;1606;51.946;10.558;2022-10-22T02:48:54;16.50;99.90
3190;DHT22;1606;51.946;10.558;2022-10-22T02:51:21;16.30;99.90
3190;DHT22;1606;51.946;10.558;2022-10-22T02:53:49;16.10;99.90
3190;DHT22;1606;51.946;10.558;2022-10-22T02:56:17;16.10;99.90
3190;DHT22;1606;51.946;10.558;2022-10-22T02:58:45;16.20;99.90
3190;DHT22;1606;51.946;10.558;2022-10-22T03:01:13;16.30;99.90
3190;DHT22;1606;51.946;10.558;2022-10-22T03:03:43;16.30;99.90
3190;DHT22;1606;51.946;10.558;2022-10-22T03:06:11;16.30;99.90
3190;DHT22;1606;51.946;10.558;2022-10-22T03:08:39;16.30;99.90
3190;DHT22;1606;51.946;10.558;2022-10-22T03:11:07;16.30;99.90
3190;DHT22;1606;51.946;10.558;2022-10-22T03:13:35;16.30;99.90
3190;DHT22;1606;51.946;10.558;2022-10-22T03:16:03;16.20;99.90
3190;DHT22;1606;51.946;10.558;2022-10-22T03:18:31;16.20;99.90
3190;DHT22;1606;51.946;10.558;2022-10-22T03:21:07;16.20;99.90
3190;DHT22;1606;51.946;10.558;2022-10-22T03:23:36;16.20;99.90
3190;DHT22;1606;51.946;10.558;2022-10-22T03:26:05;16.20;99.90
3190;DHT22;1606;51.946;10.558;2022-10-22T03:28:34;16.20;99.90
3190;DHT22;1606;51.946;10.558;2022-10-22T03:31:02;16.30;99.90
3190;DHT22;1606;51.946;10.558;2022-10-22T03:33:30;16.20;99.90
3190;DHT22;1606;51.946;10.558;2022-10-22T03:35:58;16.30;99.90
3190;DHT22;1606;51.946;10.558;2022-10-22T03:38:28;16.30;99.90
3190;DHT22;1606;51.946;10.558;2022-10-22T03:40:59;16.20;99.90
3190;DHT22;1606;51.946;10.558;2022-10-22T03:43:27;16.20;99.90
3190;DHT22;1606;51.946;10.558;2022-10-22T03:45:55;16.20;99.90
3190;DHT22;1606;51.946;10.558;2022-10-22T03:48:23;16.20;99.90
3190;DHT22;1606;51.946;10.558;2022-10-22T03:50:51;16.10;99.90
3190;DHT22;1606;51.946;10.558;2022-10-22T03:53:19;15.90;99.90
3190;DHT22;1606;51.946;10.558;2022-10-22T03:55:48;15.80;99.90
3190;DHT22;1606;51.946;10.558;2022-10-22T03:58:16;15.50;99.90
3190;DHT22;1606;51.946;10.558;2022-10-22T04:00:44;15.40;99.90
3190;DHT22;1606;51.946;10.558;2022-10-22T04:03:12;15.60;99.90
3190;DHT22;1606;51.946;10.558;2022-10-22T04:05:39;15.70;99.90
3190;DHT22;1606;51.946;10.558;2022-10-22T04:08:07;15.50;99.90
3190;DHT22;1606;51.946;10.558;2022-10-22T04:10:35;15.60;99.90
3190;DHT22;1606;51.946;10.558;2022-10-22T04:13:04;15.90;99.90
3190;DHT22;1606;51.946;10.558;2022-10-22T04:15:32;15.90;99.90
3190;DHT22;1606;51.946;10.558;2022-10-22T04:18:00;16.00;99.90
3190;DHT22;1606;51.946;10.558;2022-10-22T04:20:28;16.00;99.90
3190;DHT22;1606;51.946;10.558;2022-10-22T04:22:55;16.00;99.90
3190;DHT22;1606;51.946;10.558;2022-10-22T04:25:23;16.00;99.90
3190;DHT22;1606;51.946;10.558;2022-10-22T04:27:51;15.90;99.90
3190;DHT22;1606;51.946;10.558;2022-10-22T04:30:20;15.80;99.90
3190;DHT22;1606;51.946;10.558;2022-10-22T04:32:48;15.90;99.90
3190;DHT22;1606;51.946;10.558;2022-10-22T04:35:16;15.90;99.90
3190;DHT22;1606;51.946;10.558;2022-10-22T04:37:44;15.90;99.90
3190;DHT22;1606;51.946;10.558;2022-10-22T04:40:12;15.80;99.90
3190;DHT22;1606;51.946;10.558;2022-10-22T04:42:39;15.80;99.90
3190;DHT22;1606;51.946;10.558;2022-10-22T04:45:08;15.80;99.90
3190;DHT22;1606;51.946;10.558;2022-10-22T04:47:37;15.80;99.90
3190;DHT22;1606;51.946;10.558;2022-10-22T04:50:06;15.70;99.90
3190;DHT22;1606;51.946;10.558;2022-10-22T04:52:34;15.90;99.90
3190;DHT22;1606;51.946;10.558;2022-10-22T04:55:02;15.80;99.90
3190;DHT22;1606;51.946;10.558;2022-10-22T04:57:31;15.80;99.90
3190;DHT22;1606;51.946;10.558;2022-10-22T04:59:59;15.70;99.90
3190;DHT22;1606;51.946;10.558;2022-10-22T05:02:26;15.70;99.90
3190;DHT22;1606;51.946;10.558;2022-10-22T05:04:56;15.70;99.90
3190;DHT22;1606;51.946;10.558;2022-10-22T05:07:23;15.70;99.90
3190;DHT22;1606;51.946;10.558;2022-10-22T05:09:52;15.70;99.90
3190;DHT22;1606;51.946;10.558;2022-10-22T05:12:20;15.90;99.90
3190;DHT22;1606;51.946;10.558;2022-10-22T05:14:48;15.80;99.90
3190;DHT22;1606;51.946;10.558;2022-10-22T05:17:15;15.80;99.90
3190;DHT22;1606;51.946;10.558;2022-10-22T05:19:43;15.70;99.90
3190;DHT22;1606;51.946;10.558;2022-10-22T05:22:12;15.70;99.90
3190;DHT22;1606;51.946;10.558;2022-10-22T05:24:40;15.70;99.90
3190;DHT22;1606;51.946;10.558;2022-10-22T05:27:08;15.80;99.90
3190;DHT22;1606;51.946;10.558;2022-10-22T05:29:36;15.80;99.90
3190;DHT22;1606;51.946;10.558;2022-10-22T05:32:04;15.70;99.90
3190;DHT22;1606;51.946;10.558;2022-10-22T05:34:32;15.70;99.90
3190;DHT22;1606;51.946;10.558;2022-10-22T05:37:01;15.80;99.90
3190;DHT22;1606;51.946;10.558;2022-10-22T05:39:30;15.80;99.90
3190;DHT22;1606;51.946;10.558;2022-10-22T05:42:02;15.90;99.90
3190;DHT22;1606;51.946;10.558;2022-10-22T05:44:30;15.90;99.90
3190;DHT22;1606;51.946;10.558;2022-10-22T05:46:58;15.80;99.90
3190;DHT22;1606;51.946;10.558;2022-10-22T05:49:25;15.90;99.90
3190;DHT22;1606;51.946;10.558;2022-10-22T05:51:53;15.90;99.90
3190;DHT22;1606;51.946;10.558;2022-10-22T05:54:21;15.90;99.90
3190;DHT22;1606;51.946;10.558;2022-10-22T05:56:50;15.90;99.90
3190;DHT22;1606;51.946;10.558;2022-10-22T05:59:18;15.80;99.90
3190;DHT22;1606;51.946;10.558;2022-10-22T06:01:46;15.80;99.90
3190;DHT22;1606;51.946;10.558;2022-10-22T06:04:14;15.90;99.90
3190;DHT22;1606;51.946;10.558;2022-10-22T06:06:45;15.90;99.90
3190;DHT22;1606;51.946;10.558;2022-10-22T06:09:16;15.80;99.90
3190;DHT22;1606;51.946;10.558;2022-10-22T06:11:45;15.80;99.90
3190;DHT22;1606;51.946;10.558;2022-10-22T06:14:15;15.70;99.90
3190;DHT22;1606;51.946;10.558;2022-10-22T06:16:45;15.80;99.90
3190;DHT22;1606;51.946;10.558;2022-10-22T06:19:14;15.90;99.90
3190;DHT22;1606;51.946;10.558;2022-10-22T06:21:43;15.90;99.90
3190;DHT22;1606;51.946;10.558;2022-10-22T06:24:11;15.80;99.90
3190;DHT22;1606;51.946;10.558;2022-10-22T06:26:40;15.80;99.90
3190;DHT22;1606;51.946;10.558;2022-10-22T06:29:08;15.80;99.90
3190;DHT22;1606;51.946;10.558;2022-10-22T06:31:37;15.80;99.90
3190;DHT22;1606;51.946;10.558;2022-10-22T06:34:07;15.90;99.90
3190;DHT22;1606;51.946;10.558;2022-10-22T06:36:35;15.80;99.90
3190;DHT22;1606;51.946;10.558;2022-10-22T06:39:04;15.90;99.90
3190;DHT22;1606;51.946;10.558;2022-10-22T06:41:32;15.90;99.90
3190;DHT22;1606;51.946;10.558;2022-10-22T06:44:00;15.90;99.90
3190;DHT22;1606;51.946;10.558;2022-10-22T06:46:28;15.90;99.90
3190;DHT22;1606;51.946;10.558;2022-10-22T06:49:00;15.80;99.90
3190;DHT22;1606;51.946;10.558;2022-10-22T06:51:29;15.90;99.90
3190;DHT22;1606;51.946;10.558;2022-10-22T06:53:58;15.80;99.90
3190;DHT22;1606;51.946;10.558;2022-10-22T06:56:27;15.80;99.90
3190;DHT22;1606;51.946;10.558;2022-10-22T06:58:57;15.80;99.90
3190;DHT22;1606;51.946;10.558;2022-10-22T07:01:26;15.70;99.90
3190;DHT22;1606;51.946;10.558;2022-10-22T07:03:55;15.80;99.90
3190;DHT22;1606;51.946;10.558;2022-10-22T07:06:25;15.90;99.90
3190;DHT22;1606;51.946;10.558;2022-10-22T07:08:56;15.90;99.90
3190;DHT22;1606;51.946;10.558;2022-10-22T07:11:26;16.00;99.90
3190;DHT22;1606;51.946;10.558;2022-10-22T07:13:55;16.00;99.90
3190;DHT22;1606;51.946;10.558;2022-10-22T07:16:24;16.00;99.90
3190;DHT22;1606;51.946;10.558;2022-10-22T07:18:58;16.10;99.90
3190;DHT22;1606;51.946;10.558;2022-10-22T07:21:28;16.10;99.90
3190;DHT22;1606;51.946;10.558;2022-10-22T07:23:56;16.10;99.90
3190;DHT22;1606;51.946;10.558;2022-10-22T07:26:25;16.10;99.90
3190;DHT22;1606;51.946;10.558;2022-10-22T07:28:56;16.20;99.90
3190;DHT22;1606;51.946;10.558;2022-10-22T07:31:24;16.20;99.90
3190;DHT22;1606;51.946;10.558;2022-10-22T07:33:52;16.30;99.90
3190;DHT22;1606;51.946;10.558;2022-10-22T07:36:19;16.30;99.90
3190;DHT22;1606;51.946;10.558;2022-10-22T07:38:53;16.40;99.90
3190;DHT22;1606;51.946;10.558;2022-10-22T07:41:22;16.30;99.90
3190;DHT22;1606;51.946;10.558;2022-10-22T07:43:50;16.40;99.90
3190;DHT22;1606;51.946;10.558;2022-10-22T07:46:18;16.40;99.90
3190;DHT22;1606;51.946;10.558;2022-10-22T07:48:46;16.40;99.90
3190;DHT22;1606;51.946;10.558;2022-10-22T07:51:14;16.40;99.90
3190;DHT22;1606;51.946;10.558;2022-10-22T07:53:43;16.50;99.90
3190;DHT22;1606;51.946;10.558;2022-10-22T07:56:12;16.50;99.90
3190;DHT22;1606;51.946;10.558;2022-10-22T07:58:40;16.50;99.90
3190;DHT22;1606;51.946;10.558;2022-10-22T08:01:08;16.70;99.90
3190;DHT22;1606;51.946;10.558;2022-10-22T08:03:36;16.80;99.90
3190;DHT22;1606;51.946;10.558;2022-10-22T08:06:04;16.80;99.90
3190;DHT22;1606;51.946;10.558;2022-10-22T08:08:32;17.10;99.90
3190;DHT22;1606;51.946;10.558;2022-10-22T08:11:00;17.40;99.90
3190;DHT22;1606;51.946;10.558;2022-10-22T08:13:30;17.50;99.90
3190;DHT22;1606;51.946;10.558;2022-10-22T08:15:58;17.70;99.90
3190;DHT22;1606;51.946;10.558;2022-10-22T08:18:27;17.90;99.90
3190;DHT22;1606;51.946;10.558;2022-10-22T08:20:56;17.90;99.90
3190;DHT22;1606;51.946;10.558;2022-10-22T08:23:24;18.10;99.90
3190;DHT22;1606;51.946;10.558;2022-10-22T08:25:55;18.10;99.90
3190;DHT22;1606;51.946;10.558;2022-10-22T08:28:23;18.10;99.90
3190;DHT22;1606;51.946;10.558;2022-10-22T08:30:52;18.30;99.90
3190;DHT22;1606;51.946;10.558;2022-10-22T08:33:20;18.40;99.90
3190;DHT22;1606;51.946;10.558;2022-10-22T08:35:49;18.40;99.90
3190;DHT22;1606;51.946;10.558;2022-10-22T08:38:17;18.50;99.90
3190;DHT22;1606;51.946;10.558;2022-10-22T08:40:47;18.60;99.90
3190;DHT22;1606;51.946;10.558;2022-10-22T08:43:41;18.40;99.90
3190;DHT22;1606;51.946;10.558;2022-10-22T08:46:23;18.60;99.90
3190;DHT22;1606;51.946;10.558;2022-10-22T08:48:55;18.50;99.90
3190;DHT22;1606;51.946;10.558;2022-10-22T08:51:28;18.60;99.90
3190;DHT22;1606;51.946;10.558;2022-10-22T08:54:07;18.80;99.90
3190;DHT22;1606;51.946;10.558;2022-10-22T08:56:40;18.90;99.90
3190;DHT22;1606;51.946;10.558;2022-10-22T08:59:15;19.00;99.90
3190;DHT22;1606;51.946;10.558;2022-10-22T09:01:47;18.90;99.90
3190;DHT22;1606;51.946;10.558;2022-10-22T09:04:20;18.70;99.90
3190;DHT22;1606;51.946;10.558;2022-10-22T09:06:52;18.80;99.90
3190;DHT22;1606;51.946;10.558;2022-10-22T09:09:20;18.80;99.90
3190;DHT22;1606;51.946;10.558;2022-10-22T09:11:50;18.80;99.90
3190;DHT22;1606;51.946;10.558;2022-10-22T09:14:20;19.10;99.90
3190;DHT22;1606;51.946;10.558;2022-10-22T09:17:04;19.20;99.90
3190;DHT22;1606;51.946;10.558;2022-10-22T09:19:45;19.20;99.90
3190;DHT22;1606;51.946;10.558;2022-10-22T09:22:25;19.20;99.90
3190;DHT22;1606;51.946;10.558;2022-10-22T09:24:58;19.30;99.90
3190;DHT22;1606;51.946;10.558;2022-10-22T09:27:30;19.50;99.90
3190;DHT22;1606;51.946;10.558;2022-10-22T09:30:00;19.60;99.90
3190;DHT22;1606;51.946;10.558;2022-10-22T09:32:29;19.70;99.90
3190;DHT22;1606;51.946;10.558;2022-10-22T09:34:58;19.70;99.90
3190;DHT22;1606;51.946;10.558;2022-10-22T09:37:28;19.80;99.90
3190;DHT22;1606;51.946;10.558;2022-10-22T09:39:56;19.90;99.90
3190;DHT22;1606;51.946;10.558;2022-10-22T09:42:31;19.90;99.90
3190;DHT22;1606;51.946;10.558;2022-10-22T09:45:00;19.90;99.90
3190;DHT22;1606;51.946;10.558;2022-10-22T09:47:32;19.80;99.90
3190;DHT22;1606;51.946;10.558;2022-10-22T09:50:25;19.80;99.90
3190;DHT22;1606;51.946;10.558;2022-10-22T09:52:59;19.90;99.90
3190;DHT22;1606;51.946;10.558;2022-10-22T09:55:27;20.00;99.90
3190;DHT22;1606;51.946;10.558;2022-10-22T09:57:58;20.30;99.90
3190;DHT22;1606;51.946;10.558;2022-10-22T10:00:26;20.10;99.90
3190;DHT22;1606;51.946;10.558;2022-10-22T10:02:57;20.20;99.90
3190;DHT22;1606;51.946;10.558;2022-10-22T10:05:28;20.20;99.90
3190;DHT22;1606;51.946;10.558;2022-10-22T10:07:57;20.30;99.90
3190;DHT22;1606;51.946;10.558;2022-10-22T10:10:39;20.40;99.90
3190;DHT22;1606;51.946;10.558;2022-10-22T10:13:24;20.60;99.90
3190;DHT22;1606;51.946;10.558;2022-10-22T10:16:02;20.50;99.90
3190;DHT22;1606;51.946;10.558;2022-10-22T10:18:46;20.60;99.90
3190;DHT22;1606;51.946;10.558;2022-10-22T10:21:25;20.70;99.90
3190;DHT22;1606;51.946;10.558;2022-10-22T10:23:58;20.70;99.90
3190;DHT22;1606;51.946;10.558;2022-10-22T10:26:33;20.80;99.90
3190;DHT22;1606;51.946;10.558;2022-10-22T10:29:13;20.80;99.90
3190;DHT22;1606;51.946;10.558;2022-10-22T10:31:57;20.90;99.90
3190;DHT22;1606;51.946;10.558;2022-10-22T10:34:38;20.70;99.90
3190;DHT22;1606;51.946;10.558;2022-10-22T10:37:17;20.40;99.90
3190;DHT22;1606;51.946;10.558;2022-10-22T10:39:59;20.40;99.90
3190;DHT22;1606;51.946;10.558;2022-10-22T10:42:32;20.30;99.90
3190;DHT22;1606;51.946;10.558;2022-10-22T10:45:11;20.10;99.90
3190;DHT22;1606;51.946;10.558;2022-10-22T10:47:55;20.20;99.90
3190;DHT22;1606;51.946;10.558;2022-10-22T10:50:33;20.20;99.90
3190;DHT22;1606;51.946;10.558;2022-10-22T10:53:13;20.40;99.90
3190;DHT22;1606;51.946;10.558;2022-10-22T10:55:56;20.60;99.90
3190;DHT22;1606;51.946;10.558;2022-10-22T10:58:32;20.50;99.90
3190;DHT22;1606;51.946;10.558;2022-10-22T11:01:11;20.60;99.90
3190;DHT22;1606;51.946;10.558;2022-10-22T11:04:04;20.80;99.90
3190;DHT22;1606;51.946;10.558;2022-10-22T11:06:38;20.90;99.90
3190;DHT22;1606;51.946;10.558;2022-10-22T11:09:13;21.30;99.90
3190;DHT22;1606;51.946;10.558;2022-10-22T11:11:49;21.40;99.90
3190;DHT22;1606;51.946;10.558;2022-10-22T11:14:20;21.20;99.90
3190;DHT22;1606;51.946;10.558;2022-10-22T11:16:58;21.30;99.90
3190;DHT22;1606;51.946;10.558;2022-10-22T11:19:31;21.30;99.90
3190;DHT22;1606;51.946;10.558;2022-10-22T11:22:27;21.30;99.90
3190;DHT22;1606;51.946;10.558;2022-10-22T11:24:59;21.50;99.90
3190;DHT22;1606;51.946;10.558;2022-10-22T11:27:32;21.50;99.90
3190;DHT22;1606;51.946;10.558;2022-10-22T11:30:10;21.80;99.90
3190;DHT22;1606;51.946;10.558;2022-10-22T11:32:40;21.60;99.90
3190;DHT22;1606;51.946;10.558;2022-10-22T11:35:13;21.40;99.90
3190;DHT22;1606;51.946;10.558;2022-10-22T11:37:44;21.40;99.90
3190;DHT22;1606;51.946;10.558;2022-10-22T11:40:16;21.50;99.90
3190;DHT22;1606;51.946;10.558;2022-10-22T11:42:49;21.50;99.90
3190;DHT22;1606;51.946;10.558;2022-10-22T11:45:30;21.70;99.90
3190;DHT22;1606;51.946;10.558;2022-10-22T11:48:05;21.80;99.90
3190;DHT22;1606;51.946;10.558;2022-10-22T11:50:46;22.10;99.90
3190;DHT22;1606;51.946;10.558;2022-10-22T11:53:20;21.80;99.90
3190;DHT22;1606;51.946;10.558;2022-10-22T11:55:55;21.80;99.90
3190;DHT22;1606;51.946;10.558;2022-10-22T11:58:34;22.00;99.90
3190;DHT22;1606;51.946;10.558;2022-10-22T12:01:21;21.90;99.90
3190;DHT22;1606;51.946;10.558;2022-10-22T12:03:51;22.00;99.90
3190;DHT22;1606;51.946;10.558;2022-10-22T12:06:21;21.60;99.90
3190;DHT22;1606;51.946;10.558;2022-10-22T12:08:58;21.50;99.90
3190;DHT22;1606;51.946;10.558;2022-10-22T12:11:35;21.60;99.90
3190;DHT22;1606;51.946;10.558;2022-10-22T12:14:15;21.70;99.90
3190;DHT22;1606;51.946;10.558;2022-10-22T12:16:45;21.70;99.90
3190;DHT22;1606;51.946;10.558;2022-10-22T12:19:26;21.70;99.90
3190;DHT22;1606;51.946;10.558;2022-10-22T12:21:56;21.90;99.90
3190;DHT22;1606;51.946;10.558;2022-10-22T12:24:31;21.80;99.90
3190;DHT22;1606;51.946;10.558;2022-10-22T12:27:01;21.50;99.90
3190;DHT22;1606;51.946;10.558;2022-10-22T12:29:31;21.50;99.90
3190;DHT22;1606;51.946;10.558;2022-10-22T12:32:02;21.40;99.90
3190;DHT22;1606;51.946;10.558;2022-10-22T12:34:30;21.40;99.90
3190;DHT22;1606;51.946;10.558;2022-10-22T12:36:58;21.60;99.90
3190;DHT22;1606;51.946;10.558;2022-10-22T12:39:27;21.70;99.90
3190;DHT22;1606;51.946;10.558;2022-10-22T12:41:55;21.40;99.90
3190;DHT22;1606;51.946;10.558;2022-10-22T12:44:23;21.60;99.90
3190;DHT22;1606;51.946;10.558;2022-10-22T12:46:51;21.40;99.90
3190;DHT22;1606;51.946;10.558;2022-10-22T12:49:27;21.60;99.90
3190;DHT22;1606;51.946;10.558;2022-10-22T12:52:00;21.80;99.90
3190;DHT22;1606;51.946;10.558;2022-10-22T12:54:31;21.90;99.90
3190;DHT22;1606;51.946;10.558;2022-10-22T12:57:00;21.80;99.90
3190;DHT22;1606;51.946;10.558;2022-10-22T12:59:32;21.60;99.90
3190;DHT22;1606;51.946;10.558;2022-10-22T13:02:01;21.40;99.90
3190;DHT22;1606;51.946;10.558;2022-10-22T13:04:37;21.40;99.90
3190;DHT22;1606;51.946;10.558;2022-10-22T13:07:19;21.40;99.90
3190;DHT22;1606;51.946;10.558;2022-10-22T13:09:58;21.40;99.90
3190;DHT22;1606;51.946;10.558;2022-10-22T13:12:27;21.10;99.90
3190;DHT22;1606;51.946;10.558;2022-10-22T13:15:19;21.20;99.90
3190;DHT22;1606;51.946;10.558;2022-10-22T13:17:48;21.30;99.90
3190;DHT22;1606;51.946;10.558;2022-10-22T13:20:19;21.50;99.90
3190;DHT22;1606;51.946;10.558;2022-10-22T13:22:55;21.50;99.90
3190;DHT22;1606;51.946;10.558;2022-10-22T13:25:29;21.50;99.90
3190;DHT22;1606;51.946;10.558;2022-10-22T13:27:58;21.60;99.90
3190;DHT22;1606;51.946;10.558;2022-10-22T13:30:29;21.50;99.90
3190;DHT22;1606;51.946;10.558;2022-10-22T13:32:59;21.50;99.90
3190;DHT22;1606;51.946;10.558;2022-10-22T13:35:29;21.60;99.90
3190;DHT22;1606;51.946;10.558;2022-10-22T13:37:59;21.70;99.90
3190;DHT22;1606;51.946;10.558;2022-10-22T13:40:28;21.60;99.90
3190;DHT22;1606;51.946;10.558;2022-10-22T13:42:56;21.70;99.90
3190;DHT22;1606;51.946;10.558;2022-10-22T13:45:24;21.70;99.90
3190;DHT22;1606;51.946;10.558;2022-10-22T13:47:52;21.60;99.90
3190;DHT22;1606;51.946;10.558;2022-10-22T13:50:21;21.70;99.90
3190;DHT22;1606;51.946;10.558;2022-10-22T13:52:50;21.70;99.90
3190;DHT22;1606;51.946;10.558;2022-10-22T13:55:21;21.80;99.90
3190;DHT22;1606;51.946;10.558;2022-10-22T13:57:53;21.80;99.90
3190;DHT22;1606;51.946;10.558;2022-10-22T14:00:24;21.80;99.90
3190;DHT22;1606;51.946;10.558;2022-10-22T14:02:55;21.90;99.90
3190;DHT22;1606;51.946;10.558;2022-10-22T14:05:24;21.80;99.90
3190;DHT22;1606;51.946;10.558;2022-10-22T14:07:52;21.70;99.90
3190;DHT22;1606;51.946;10.558;2022-10-22T14:10:21;21.50;99.90
3190;DHT22;1606;51.946;10.558;2022-10-22T14:12:54;21.60;99.90
3190;DHT22;1606;51.946;10.558;2022-10-22T14:15:23;21.50;99.90
3190;DHT22;1606;51.946;10.558;2022-10-22T14:17:53;21.60;99.90
3190;DHT22;1606;51.946;10.558;2022-10-22T14:20:25;21.70;99.90
3190;DHT22;1606;51.946;10.558;2022-10-22T14:22:54;21.60;99.90
3190;DHT22;1606;51.946;10.558;2022-10-22T14:25:24;21.30;99.90
3190;DHT22;1606;51.946;10.558;2022-10-22T14:27:53;21.30;99.90
3190;DHT22;1606;51.946;10.558;2022-10-22T14:30:24;21.30;99.90
3190;DHT22;1606;51.946;10.558;2022-10-22T14:32:52;21.30;99.90
3190;DHT22;1606;51.946;10.558;2022-10-22T14:35:21;21.30;99.90
3190;DHT22;1606;51.946;10.558;2022-10-22T14:37:49;21.20;99.90
3190;DHT22;1606;51.946;10.558;2022-10-22T14:40:19;21.40;99.90
3190;DHT22;1606;51.946;10.558;2022-10-22T14:42:48;21.30;99.90
3190;DHT22;1606;51.946;10.558;2022-10-22T14:45:19;21.20;99.90
3190;DHT22;1606;51.946;10.558;2022-10-22T14:47:48;21.40;99.90
3190;DHT22;1606;51.946;10.558;2022-10-22T14:50:16;21.40;99.90
3190;DHT22;1606;51.946;10.558;2022-10-22T14:52:44;21.40;99.90
3190;DHT22;1606;51.946;10.558;2022-10-22T14:55:13;21.50;99.90
3190;DHT22;1606;51.946;10.558;2022-10-22T14:57:42;21.50;99.90
3190;DHT22;1606;51.946;10.558;2022-10-22T15:00:13;21.50;99.90
3190;DHT22;1606;51.946;10.558;2022-10-22T15:02:43;21.40;99.90
3190;DHT22;1606;51.946;10.558;2022-10-22T15:05:11;21.50;99.90
3190;DHT22;1606;51.946;10.558;2022-10-22T15:07:39;21.40;99.90
3190;DHT22;1606;51.946;10.558;2022-10-22T15:10:08;21.10;99.90
3190;DHT22;1606;51.946;10.558;2022-10-22T15:12:36;20.90;99.90
3190;DHT22;1606;51.946;10.558;2022-10-22T15:15:05;20.70;99.90
3190;DHT22;1606;51.946;10.558;2022-10-22T15:17:33;20.40;99.90
3190;DHT22;1606;51.946;10.558;2022-10-22T15:20:03;19.60;99.90
3190;DHT22;1606;51.946;10.558;2022-10-22T15:22:32;19.20;99.90
3190;DHT22;1606;51.946;10.558;2022-10-22T15:25:02;19.10;99.90
3190;DHT22;1606;51.946;10.558;2022-10-22T15:27:30;18.70;99.90
3190;DHT22;1606;51.946;10.558;2022-10-22T15:29:58;18.70;99.90
3190;DHT22;1606;51.946;10.558;2022-10-22T15:32:26;18.70;99.90
3190;DHT22;1606;51.946;10.558;2022-10-22T15:34:55;18.50;99.90
3190;DHT22;1606;51.946;10.558;2022-10-22T15:37:24;18.80;99.90
3190;DHT22;1606;51.946;10.558;2022-10-22T15:39:54;18.80;99.90
3190;DHT22;1606;51.946;10.558;2022-10-22T15:42:22;18.50;99.90
3190;DHT22;1606;51.946;10.558;2022-10-22T15:44:56;18.90;99.90
3190;DHT22;1606;51.946;10.558;2022-10-22T15:47:25;19.10;99.90
3190;DHT22;1606;51.946;10.558;2022-10-22T15:49:55;19.40;99.90
3190;DHT22;1606;51.946;10.558;2022-10-22T15:52:25;19.60;99.90
3190;DHT22;1606;51.946;10.558;2022-10-22T15:54:53;19.70;99.90
3190;DHT22;1606;51.946;10.558;2022-10-22T15:57:21;19.70;99.90
3190;DHT22;1606;51.946;10.558;2022-10-22T15:59:48;19.70;99.90
3190;DHT22;1606;51.946;10.558;2022-10-22T16:02:17;19.70;99.90
3190;DHT22;1606;51.946;10.558;2022-10-22T16:04:45;19.70;99.90
3190;DHT22;1606;51.946;10.558;2022-10-22T16:07:13;19.70;99.90
3190;DHT22;1606;51.946;10.558;2022-10-22T16:09:42;19.70;99.90
3190;DHT22;1606;51.946;10.558;2022-10-22T16:12:10;19.40;99.90